Terminal Aerodrome Forecast
Issued by NWS Mt. Holly, NJ

Current Version | Previous Version | Text Only | Print | Product List | Glossary On
Versions: 1 2 3 4 5 6 7 8 9 10 11 12 13 14 15 16 17 18 19 20 21 22 23 24 25 26 27
618
FTUS41 KPHI 241750
TAFPHL
TAF
KPHL 241750Z 2418/2524 09010KT P6SM FEW030 OVC060
     FM250200 10008KT P6SM BKN020 OVC060
     FM250600 07013G22KT 3SM SHRA BKN008 OVC012
     FM251300 08012G21KT 5SM BR VCSH OVC005
     FM251600 13009KT P6SM SCT007 OVC012
     FM252100 14007KT 6SM -SHRA BKN015=

USA.gov is the U.S. government's official web portal to all federal, state and local government web resources and services.